sensor_id;sensor_type;location;lat;lon;timestamp;temperature;humidity
53695;DHT22;39588;51.124;7.190;2023-02-28T00:31:48;-0.20;94.10
53695;DHT22;39588;51.124;7.190;2023-02-28T00:34:14;-0.20;94.20
53695;DHT22;39588;51.124;7.190;2023-02-28T00:36:39;-0.20;94.10
53695;DHT22;39588;51.124;7.190;2023-02-28T00:46:27;-0.10;94.10
53695;DHT22;39588;51.124;7.190;2023-02-28T00:51:18;-0.10;94.00
53695;DHT22;39588;51.124;7.190;2023-02-28T00:53:44;-0.20;93.90
53695;DHT22;39588;51.124;7.190;2023-02-28T01:08:19;-0.30;93.80
53695;DHT22;39588;51.124;7.190;2023-02-28T01:10:45;-0.30;93.80
53695;DHT22;39588;51.124;7.190;2023-02-28T01:13:11;-0.40;93.70
53695;DHT22;39588;51.124;7.190;2023-02-28T01:15:49;-0.40;93.80
53695;DHT22;39588;51.124;7.190;2023-02-28T01:25:35;-0.50;94.20
53695;DHT22;39588;51.124;7.190;2023-02-28T01:28:01;-0.50;94.30
53695;DHT22;39588;51.124;7.190;2023-02-28T01:30:27;-0.50;94.40
53695;DHT22;39588;51.124;7.190;2023-02-28T01:32:52;-0.50;94.30
53695;DHT22;39588;51.124;7.190;2023-02-28T01:35:19;-0.50;94.30
53695;DHT22;39588;51.124;7.190;2023-02-28T01:37:45;-0.50;94.20
53695;DHT22;39588;51.124;7.190;2023-02-28T01:40:11;-0.50;94.20
53695;DHT22;39588;51.124;7.190;2023-02-28T01:42:37;-0.50;94.10
53695;DHT22;39588;51.124;7.190;2023-02-28T01:45:23;-0.50;94.10
53695;DHT22;39588;51.124;7.190;2023-02-28T01:47:53;-0.60;94.10
53695;DHT22;39588;51.124;7.190;2023-02-28T01:50:24;-0.60;94.10
53695;DHT22;39588;51.124;7.190;2023-02-28T01:52:53;-0.60;94.10
53695;DHT22;39588;51.124;7.190;2023-02-28T01:55:21;-0.60;94.20
53695;DHT22;39588;51.124;7.190;2023-02-28T01:57:52;-0.60;94.20
53695;DHT22;39588;51.124;7.190;2023-02-28T02:00:22;-0.60;94.20
53695;DHT22;39588;51.124;7.190;2023-02-28T02:02:51;-0.60;94.30
53695;DHT22;39588;51.124;7.190;2023-02-28T02:05:25;-0.50;94.10
53695;DHT22;39588;51.124;7.190;2023-02-28T02:08:12;-0.40;94.20
53695;DHT22;39588;51.124;7.190;2023-02-28T02:10:45;-0.30;93.90
53695;DHT22;39588;51.124;7.190;2023-02-28T02:18:48;0.00;93.70
53695;DHT22;39588;51.124;7.190;2023-02-28T02:35:12;-0.10;93.50
53695;DHT22;39588;51.124;7.190;2023-02-28T02:40:20;-0.40;93.80
53695;DHT22;39588;51.124;7.190;2023-02-28T02:42:54;-0.40;93.90
53695;DHT22;39588;51.124;7.190;2023-02-28T02:45:43;-0.50;93.90
53695;DHT22;39588;51.124;7.190;2023-02-28T02:48:12;-0.60;94.00
53695;DHT22;39588;51.124;7.190;2023-02-28T02:50:45;-0.60;94.00
53695;DHT22;39588;51.124;7.190;2023-02-28T02:53:13;-0.60;94.10
53695;DHT22;39588;51.124;7.190;2023-02-28T02:55:44;-0.60;94.20
53695;DHT22;39588;51.124;7.190;2023-02-28T02:58:15;-0.70;94.20
53695;DHT22;39588;51.124;7.190;2023-02-28T03:00:54;-0.70;94.20
53695;DHT22;39588;51.124;7.190;2023-02-28T03:03:22;-0.70;94.20
53695;DHT22;39588;51.124;7.190;2023-02-28T03:05:58;-0.70;94.20
53695;DHT22;39588;51.124;7.190;2023-02-28T03:08:24;-0.70;94.20
53695;DHT22;39588;51.124;7.190;2023-02-28T03:10:51;-0.80;94.10
53695;DHT22;39588;51.124;7.190;2023-02-28T03:16:58;-0.80;94.20
53695;DHT22;39588;51.124;7.190;2023-02-28T03:19:44;-0.90;94.10
53695;DHT22;39588;51.124;7.190;2023-02-28T03:30:33;-0.90;94.00
53695;DHT22;39588;51.124;7.190;2023-02-28T03:33:13;-0.90;94.00
53695;DHT22;39588;51.124;7.190;2023-02-28T03:35:48;-0.90;93.90
53695;DHT22;39588;51.124;7.190;2023-02-28T03:38:20;-1.00;93.60
53695;DHT22;39588;51.124;7.190;2023-02-28T03:40:55;-1.00;93.50
53695;DHT22;39588;51.124;7.190;2023-02-28T03:43:28;-1.00;93.60
53695;DHT22;39588;51.124;7.190;2023-02-28T03:45:55;-1.00;93.50
53695;DHT22;39588;51.124;7.190;2023-02-28T03:48:30;-1.00;93.30
53695;DHT22;39588;51.124;7.190;2023-02-28T03:50:59;-1.00;93.40
53695;DHT22;39588;51.124;7.190;2023-02-28T03:53:28;-1.10;93.20
53695;DHT22;39588;51.124;7.190;2023-02-28T03:55:59;-1.10;93.20
53695;DHT22;39588;51.124;7.190;2023-02-28T03:58:32;-1.10;93.20
53695;DHT22;39588;51.124;7.190;2023-02-28T04:01:16;-1.10;93.10
53695;DHT22;39588;51.124;7.190;2023-02-28T04:06:19;-1.10;93.00
53695;DHT22;39588;51.124;7.190;2023-02-28T04:08:45;-1.10;93.00
53695;DHT22;39588;51.124;7.190;2023-02-28T04:11:25;-1.10;93.00
53695;DHT22;39588;51.124;7.190;2023-02-28T04:16:18;-1.20;93.00
53695;DHT22;39588;51.124;7.190;2023-02-28T04:18:44;-1.20;93.00
53695;DHT22;39588;51.124;7.190;2023-02-28T04:21:10;-1.20;93.10
53695;DHT22;39588;51.124;7.190;2023-02-28T04:23:36;-1.20;93.10
53695;DHT22;39588;51.124;7.190;2023-02-28T04:26:02;-1.20;93.10
53695;DHT22;39588;51.124;7.190;2023-02-28T04:28:29;-1.20;93.30
53695;DHT22;39588;51.124;7.190;2023-02-28T04:31:00;-1.30;93.20
53695;DHT22;39588;51.124;7.190;2023-02-28T04:33:26;-1.20;93.20
53695;DHT22;39588;51.124;7.190;2023-02-28T04:36:04;-1.30;93.30
53695;DHT22;39588;51.124;7.190;2023-02-28T04:38:32;-1.30;93.40
53695;DHT22;39588;51.124;7.190;2023-02-28T04:43:29;-1.30;93.60
53695;DHT22;39588;51.124;7.190;2023-02-28T04:45:56;-1.40;93.50
53695;DHT22;39588;51.124;7.190;2023-02-28T04:48:24;-1.40;93.50
53695;DHT22;39588;51.124;7.190;2023-02-28T04:55:42;-1.50;93.60
53695;DHT22;39588;51.124;7.190;2023-02-28T05:10:19;-1.60;93.60
53695;DHT22;39588;51.124;7.190;2023-02-28T05:12:45;-1.60;93.60
53695;DHT22;39588;51.124;7.190;2023-02-28T05:15:15;-1.60;93.60
53695;DHT22;39588;51.124;7.190;2023-02-28T05:20:08;-1.60;93.50
53695;DHT22;39588;51.124;7.190;2023-02-28T05:22:37;-1.60;93.40
53695;DHT22;39588;51.124;7.190;2023-02-28T05:25:03;-1.60;93.40
53695;DHT22;39588;51.124;7.190;2023-02-28T05:27:30;-1.60;93.30
53695;DHT22;39588;51.124;7.190;2023-02-28T05:29:56;-1.60;93.20
53695;DHT22;39588;51.124;7.190;2023-02-28T05:32:22;-1.60;93.20
53695;DHT22;39588;51.124;7.190;2023-02-28T05:37:14;-1.60;93.10
53695;DHT22;39588;51.124;7.190;2023-02-28T05:39:41;-1.60;93.00
53695;DHT22;39588;51.124;7.190;2023-02-28T05:44:34;-1.70;92.90
53695;DHT22;39588;51.124;7.190;2023-02-28T05:49:26;-1.70;92.90
53695;DHT22;39588;51.124;7.190;2023-02-28T05:54:17;-1.60;92.90
53695;DHT22;39588;51.124;7.190;2023-02-28T05:56:43;-1.70;92.80
53695;DHT22;39588;51.124;7.190;2023-02-28T05:59:14;-1.70;92.60
53695;DHT22;39588;51.124;7.190;2023-02-28T06:01:42;-1.70;92.50
53695;DHT22;39588;51.124;7.190;2023-02-28T06:04:14;-1.70;92.50
53695;DHT22;39588;51.124;7.190;2023-02-28T06:06:44;-1.70;92.60
53695;DHT22;39588;51.124;7.190;2023-02-28T06:14:03;-1.70;92.20
53695;DHT22;39588;51.124;7.190;2023-02-28T06:16:30;-1.70;92.10
53695;DHT22;39588;51.124;7.190;2023-02-28T06:23:56;-1.60;91.80
53695;DHT22;39588;51.124;7.190;2023-02-28T06:26:22;-1.60;91.70
53695;DHT22;39588;51.124;7.190;2023-02-28T06:28:48;-1.60;91.50
53695;DHT22;39588;51.124;7.190;2023-02-28T06:31:16;-1.60;91.40
53695;DHT22;39588;51.124;7.190;2023-02-28T06:36:11;-1.60;90.90
53695;DHT22;39588;51.124;7.190;2023-02-28T06:41:04;-1.60;90.80
53695;DHT22;39588;51.124;7.190;2023-02-28T06:43:34;-1.60;90.60
53695;DHT22;39588;51.124;7.190;2023-02-28T06:46:01;-1.60;90.40
53695;DHT22;39588;51.124;7.190;2023-02-28T06:51:04;-1.50;90.00
53695;DHT22;39588;51.124;7.190;2023-02-28T06:53:30;-1.40;90.20
53695;DHT22;39588;51.124;7.190;2023-02-28T06:58:22;-1.40;89.30
53695;DHT22;39588;51.124;7.190;2023-02-28T07:00:51;-1.30;89.00
53695;DHT22;39588;51.124;7.190;2023-02-28T07:03:17;-1.30;88.80
53695;DHT22;39588;51.124;7.190;2023-02-28T07:05:44;-1.20;87.10
53695;DHT22;39588;51.124;7.190;2023-02-28T07:08:10;-1.20;87.90
53695;DHT22;39588;51.124;7.190;2023-02-28T07:13:07;-1.10;85.10
53695;DHT22;39588;51.124;7.190;2023-02-28T07:17:59;-0.90;85.90
53695;DHT22;39588;51.124;7.190;2023-02-28T07:20:25;-0.80;84.60
53695;DHT22;39588;51.124;7.190;2023-02-28T07:22:51;-0.70;86.00
53695;DHT22;39588;51.124;7.190;2023-02-28T07:25:28;-0.70;83.70
53695;DHT22;39588;51.124;7.190;2023-02-28T07:27:55;-0.60;83.30
53695;DHT22;39588;51.124;7.190;2023-02-28T07:30:22;-0.60;82.20
53695;DHT22;39588;51.124;7.190;2023-02-28T07:35:14;-0.40;81.10
53695;DHT22;39588;51.124;7.190;2023-02-28T07:37:41;-0.40;78.60
53695;DHT22;39588;51.124;7.190;2023-02-28T07:40:10;-0.30;79.20
53695;DHT22;39588;51.124;7.190;2023-02-28T07:59:51;0.20;68.80
53695;DHT22;39588;51.124;7.190;2023-02-28T08:02:17;0.20;69.50
53695;DHT22;39588;51.124;7.190;2023-02-28T08:07:10;0.30;67.20
53695;DHT22;39588;51.124;7.190;2023-02-28T08:09:39;0.40;68.70
53695;DHT22;39588;51.124;7.190;2023-02-28T08:12:05;0.50;66.40
53695;DHT22;39588;51.124;7.190;2023-02-28T08:14:31;0.50;64.70
53695;DHT22;39588;51.124;7.190;2023-02-28T08:19:22;0.70;64.40
53695;DHT22;39588;51.124;7.190;2023-02-28T08:21:48;0.70;63.90
53695;DHT22;39588;51.124;7.190;2023-02-28T08:31:31;1.00;62.30
53695;DHT22;39588;51.124;7.190;2023-02-28T08:33:57;1.00;61.00
53695;DHT22;39588;51.124;7.190;2023-02-28T08:36:25;1.10;62.20
53695;DHT22;39588;51.124;7.190;2023-02-28T08:38:51;1.20;61.50
53695;DHT22;39588;51.124;7.190;2023-02-28T08:41:17;1.20;61.20
53695;DHT22;39588;51.124;7.190;2023-02-28T08:46:12;1.40;60.10
53695;DHT22;39588;51.124;7.190;2023-02-28T08:48:39;1.50;59.60
53695;DHT22;39588;51.124;7.190;2023-02-28T08:51:09;1.60;59.50
53695;DHT22;39588;51.124;7.190;2023-02-28T08:53:36;1.70;58.40
53695;DHT22;39588;51.124;7.190;2023-02-28T08:56:07;1.70;57.40
53695;DHT22;39588;51.124;7.190;2023-02-28T08:58:34;1.70;56.40
53695;DHT22;39588;51.124;7.190;2023-02-28T09:01:00;1.60;58.10
53695;DHT22;39588;51.124;7.190;2023-02-28T09:06:00;2.00;58.20
53695;DHT22;39588;51.124;7.190;2023-02-28T09:08:28;2.00;56.10
53695;DHT22;39588;51.124;7.190;2023-02-28T09:10:55;2.00;57.10
53695;DHT22;39588;51.124;7.190;2023-02-28T09:13:23;2.00;55.10
53695;DHT22;39588;51.124;7.190;2023-02-28T09:20:42;1.60;53.10
53695;DHT22;39588;51.124;7.190;2023-02-28T09:23:09;1.80;54.70
53695;DHT22;39588;51.124;7.190;2023-02-28T09:25:35;1.90;54.80
53695;DHT22;39588;51.124;7.190;2023-02-28T09:28:01;2.00;55.60
53695;DHT22;39588;51.124;7.190;2023-02-28T09:30:27;1.90;53.50
53695;DHT22;39588;51.124;7.190;2023-02-28T09:32:53;1.90;52.80
53695;DHT22;39588;51.124;7.190;2023-02-28T09:35:20;1.70;52.40
53695;DHT22;39588;51.124;7.190;2023-02-28T09:37:49;1.80;54.20
53695;DHT22;39588;51.124;7.190;2023-02-28T09:40:15;2.00;55.00
53695;DHT22;39588;51.124;7.190;2023-02-28T09:42:46;2.20;53.10
53695;DHT22;39588;51.124;7.190;2023-02-28T09:45:36;2.30;52.50
53695;DHT22;39588;51.124;7.190;2023-02-28T09:48:21;2.10;53.70
53695;DHT22;39588;51.124;7.190;2023-02-28T09:50:51;2.40;53.90
53695;DHT22;39588;51.124;7.190;2023-02-28T09:53:31;2.60;54.70
53695;DHT22;39588;51.124;7.190;2023-02-28T09:56:10;2.50;53.10
53695;DHT22;39588;51.124;7.190;2023-02-28T09:58:57;2.60;54.30
53695;DHT22;39588;51.124;7.190;2023-02-28T10:01:44;2.70;54.40
53695;DHT22;39588;51.124;7.190;2023-02-28T10:04:51;2.80;54.00
53695;DHT22;39588;51.124;7.190;2023-02-28T10:10:18;2.90;51.60
53695;DHT22;39588;51.124;7.190;2023-02-28T10:12:46;3.00;51.60
53695;DHT22;39588;51.124;7.190;2023-02-28T10:15:16;3.00;51.70
53695;DHT22;39588;51.124;7.190;2023-02-28T10:17:44;3.10;51.00
53695;DHT22;39588;51.124;7.190;2023-02-28T10:20:15;3.00;50.90
53695;DHT22;39588;51.124;7.190;2023-02-28T10:23:02;3.10;51.10
53695;DHT22;39588;51.124;7.190;2023-02-28T10:25:34;3.10;51.40
53695;DHT22;39588;51.124;7.190;2023-02-28T10:28:10;2.90;50.20
53695;DHT22;39588;51.124;7.190;2023-02-28T10:30:45;2.80;51.50
53695;DHT22;39588;51.124;7.190;2023-02-28T10:35:49;2.80;51.70
53695;DHT22;39588;51.124;7.190;2023-02-28T10:40:51;2.90;51.30
53695;DHT22;39588;51.124;7.190;2023-02-28T10:43:21;3.00;51.80
53695;DHT22;39588;51.124;7.190;2023-02-28T10:51:05;3.20;51.50
53695;DHT22;39588;51.124;7.190;2023-02-28T10:53:51;3.50;52.00
53695;DHT22;39588;51.124;7.190;2023-02-28T10:56:23;3.90;52.00
53695;DHT22;39588;51.124;7.190;2023-02-28T10:59:01;4.10;50.50
53695;DHT22;39588;51.124;7.190;2023-02-28T11:01:43;4.00;50.00
53695;DHT22;39588;51.124;7.190;2023-02-28T11:04:23;4.00;49.30
53695;DHT22;39588;51.124;7.190;2023-02-28T11:09:46;3.60;50.50
53695;DHT22;39588;51.124;7.190;2023-02-28T11:12:32;3.40;50.20
53695;DHT22;39588;51.124;7.190;2023-02-28T11:15:01;3.10;50.50
53695;DHT22;39588;51.124;7.190;2023-02-28T11:17:30;3.20;52.40
53695;DHT22;39588;51.124;7.190;2023-02-28T11:20:02;3.60;53.30
53695;DHT22;39588;51.124;7.190;2023-02-28T11:22:32;3.90;52.30
53695;DHT22;39588;51.124;7.190;2023-02-28T11:25:06;4.20;51.40
53695;DHT22;39588;51.124;7.190;2023-02-28T11:32:27;3.50;49.40
53695;DHT22;39588;51.124;7.190;2023-02-28T11:38:00;2.70;51.00
53695;DHT22;39588;51.124;7.190;2023-02-28T11:40:35;2.50;51.40
53695;DHT22;39588;51.124;7.190;2023-02-28T11:54:21;3.00;52.40
53695;DHT22;39588;51.124;7.190;2023-02-28T11:56:37;3.30;52.40
53695;DHT22;39588;51.124;7.190;2023-02-28T12:13:18;3.60;49.80
53695;DHT22;39588;51.124;7.190;2023-02-28T12:16:17;3.80;49.80
53695;DHT22;39588;51.124;7.190;2023-02-28T12:26:40;3.70;47.70
53695;DHT22;39588;51.124;7.190;2023-02-28T12:29:28;3.50;47.20
53695;DHT22;39588;51.124;7.190;2023-02-28T12:32:26;3.40;47.90
53695;DHT22;39588;51.124;7.190;2023-02-28T12:35:04;3.60;49.30
53695;DHT22;39588;51.124;7.190;2023-02-28T12:42:46;3.80;48.10
53695;DHT22;39588;51.124;7.190;2023-02-28T12:45:40;3.80;48.70
53695;DHT22;39588;51.124;7.190;2023-02-28T12:48:10;4.00;48.70
53695;DHT22;39588;51.124;7.190;2023-02-28T12:50:37;4.10;49.20
53695;DHT22;39588;51.124;7.190;2023-02-28T12:53:07;4.10;48.00
53695;DHT22;39588;51.124;7.190;2023-02-28T13:09:20;4.10;47.80
53695;DHT22;39588;51.124;7.190;2023-02-28T13:14:20;4.00;48.40
53695;DHT22;39588;51.124;7.190;2023-02-28T13:17:17;4.10;47.90
53695;DHT22;39588;51.124;7.190;2023-02-28T13:22:41;3.90;46.00
53695;DHT22;39588;51.124;7.190;2023-02-28T13:28:00;3.90;47.40
53695;DHT22;39588;51.124;7.190;2023-02-28T13:38:44;3.90;46.60
53695;DHT22;39588;51.124;7.190;2023-02-28T13:44:14;4.20;48.10
53695;DHT22;39588;51.124;7.190;2023-02-28T13:51:47;4.20;46.90
53695;DHT22;39588;51.124;7.190;2023-02-28T14:05:35;4.30;48.00
53695;DHT22;39588;51.124;7.190;2023-02-28T14:08:20;4.30;47.10
53695;DHT22;39588;51.124;7.190;2023-02-28T14:10:50;4.30;47.90
53695;DHT22;39588;51.124;7.190;2023-02-28T14:13:39;4.30;47.50
53695;DHT22;39588;51.124;7.190;2023-02-28T14:16:14;4.40;48.10
53695;DHT22;39588;51.124;7.190;2023-02-28T14:18:47;4.40;47.60
53695;DHT22;39588;51.124;7.190;2023-02-28T14:38:23;4.50;47.80
53695;DHT22;39588;51.124;7.190;2023-02-28T14:40:52;4.50;47.40
53695;DHT22;39588;51.124;7.190;2023-02-28T14:43:22;4.50;46.70
53695;DHT22;39588;51.124;7.190;2023-02-28T14:45:59;4.50;47.30
53695;DHT22;39588;51.124;7.190;2023-02-28T14:48:26;4.60;47.00
53695;DHT22;39588;51.124;7.190;2023-02-28T14:50:58;4.50;46.90
53695;DHT22;39588;51.124;7.190;2023-02-28T14:53:28;4.50;46.90
53695;DHT22;39588;51.124;7.190;2023-02-28T14:55:54;4.60;46.70
53695;DHT22;39588;51.124;7.190;2023-02-28T14:58:32;4.50;46.60
53695;DHT22;39588;51.124;7.190;2023-02-28T15:01:03;4.50;46.10
53695;DHT22;39588;51.124;7.190;2023-02-28T15:05:57;4.50;46.20
53695;DHT22;39588;51.124;7.190;2023-02-28T15:08:24;4.40;46.10
53695;DHT22;39588;51.124;7.190;2023-02-28T15:10:58;4.40;47.50
53695;DHT22;39588;51.124;7.190;2023-02-28T15:13:36;4.50;47.80
53695;DHT22;39588;51.124;7.190;2023-02-28T15:16:05;4.60;48.00
53695;DHT22;39588;51.124;7.190;2023-02-28T15:18:55;4.60;47.50
53695;DHT22;39588;51.124;7.190;2023-02-28T15:21:34;4.60;47.50
53695;DHT22;39588;51.124;7.190;2023-02-28T15:26:58;4.50;47.00
53695;DHT22;39588;51.124;7.190;2023-02-28T15:29:27;4.40;46.90
53695;DHT22;39588;51.124;7.190;2023-02-28T15:32:01;4.40;46.70
53695;DHT22;39588;51.124;7.190;2023-02-28T15:34:39;4.40;47.30
53695;DHT22;39588;51.124;7.190;2023-02-28T15:38:26;4.30;46.80
53695;DHT22;39588;51.124;7.190;2023-02-28T15:40:32;4.30;47.20
53695;DHT22;39588;51.124;7.190;2023-02-28T15:43:14;4.30;47.70
53695;DHT22;39588;51.124;7.190;2023-02-28T15:48:25;4.10;46.70
53695;DHT22;39588;51.124;7.190;2023-02-28T15:51:08;4.10;47.30
53695;DHT22;39588;51.124;7.190;2023-02-28T15:53:44;4.10;47.30
53695;DHT22;39588;51.124;7.190;2023-02-28T15:56:25;4.10;47.30
53695;DHT22;39588;51.124;7.190;2023-02-28T15:59:03;4.00;46.90
53695;DHT22;39588;51.124;7.190;2023-02-28T16:01:34;4.00;47.80
53695;DHT22;39588;51.124;7.190;2023-02-28T16:04:04;4.00;48.20
53695;DHT22;39588;51.124;7.190;2023-02-28T16:09:04;4.00;47.80
53695;DHT22;39588;51.124;7.190;2023-02-28T16:16:26;3.90;48.10
53695;DHT22;39588;51.124;7.190;2023-02-28T16:18:52;3.90;48.10
53695;DHT22;39588;51.124;7.190;2023-02-28T16:21:18;3.90;48.20
53695;DHT22;39588;51.124;7.190;2023-02-28T16:26:18;3.70;48.20
53695;DHT22;39588;51.124;7.190;2023-02-28T16:28:45;3.70;48.70
53695;DHT22;39588;51.124;7.190;2023-02-28T16:31:11;3.70;48.50
53695;DHT22;39588;51.124;7.190;2023-02-28T16:36:12;3.60;48.70
53695;DHT22;39588;51.124;7.190;2023-02-28T16:38:38;3.60;48.60
53695;DHT22;39588;51.124;7.190;2023-02-28T16:41:05;3.60;48.90
53695;DHT22;39588;51.124;7.190;2023-02-28T16:45:57;3.40;52.50
53695;DHT22;39588;51.124;7.190;2023-02-28T16:48:26;3.40;54.10
53695;DHT22;39588;51.124;7.190;2023-02-28T16:58:15;3.20;56.90
53695;DHT22;39588;51.124;7.190;2023-02-28T17:00:41;3.10;57.80
53695;DHT22;39588;51.124;7.190;2023-02-28T17:03:27;3.00;58.20
53695;DHT22;39588;51.124;7.190;2023-02-28T17:05:53;3.00;59.00
53695;DHT22;39588;51.124;7.190;2023-02-28T17:08:19;3.00;60.00
53695;DHT22;39588;51.124;7.190;2023-02-28T17:10:45;2.90;60.80
53695;DHT22;39588;51.124;7.190;2023-02-28T17:18:04;2.70;64.30
53695;DHT22;39588;51.124;7.190;2023-02-28T17:25:23;2.70;68.20
53695;DHT22;39588;51.124;7.190;2023-02-28T17:27:48;2.60;69.60
53695;DHT22;39588;51.124;7.190;2023-02-28T17:32:41;2.50;72.40
53695;DHT22;39588;51.124;7.190;2023-02-28T17:35:07;2.50;73.90
53695;DHT22;39588;51.124;7.190;2023-02-28T17:37:33;2.40;75.30
53695;DHT22;39588;51.124;7.190;2023-02-28T17:39:59;2.50;77.10
53695;DHT22;39588;51.124;7.190;2023-02-28T17:42:24;2.40;78.00
53695;DHT22;39588;51.124;7.190;2023-02-28T18:01:59;2.10;84.20
53695;DHT22;39588;51.124;7.190;2023-02-28T18:04:25;2.10;85.20
53695;DHT22;39588;51.124;7.190;2023-02-28T18:06:52;2.10;85.70
53695;DHT22;39588;51.124;7.190;2023-02-28T18:09:22;2.00;86.00
53695;DHT22;39588;51.124;7.190;2023-02-28T18:11:51;2.00;86.90
53695;DHT22;39588;51.124;7.190;2023-02-28T18:24:11;2.00;87.60
53695;DHT22;39588;51.124;7.190;2023-02-28T18:29:04;2.00;88.20
53695;DHT22;39588;51.124;7.190;2023-02-28T18:41:17;1.90;89.30
53695;DHT22;39588;51.124;7.190;2023-02-28T18:46:13;1.80;89.80
53695;DHT22;39588;51.124;7.190;2023-02-28T18:53:33;1.80;90.10
53695;DHT22;39588;51.124;7.190;2023-02-28T19:05:45;1.70;90.10
53695;DHT22;39588;51.124;7.190;2023-02-28T19:13:08;1.60;90.10
53695;DHT22;39588;51.124;7.190;2023-02-28T19:17:59;1.60;90.30
53695;DHT22;39588;51.124;7.190;2023-02-28T19:20:25;1.60;90.40
53695;DHT22;39588;51.124;7.190;2023-02-28T19:27:43;1.50;90.40
53695;DHT22;39588;51.124;7.190;2023-02-28T19:35:01;1.40;90.50
53695;DHT22;39588;51.124;7.190;2023-02-28T19:37:27;1.40;90.50
53695;DHT22;39588;51.124;7.190;2023-02-28T19:39:53;1.40;90.60
53695;DHT22;39588;51.124;7.190;2023-02-28T19:42:22;1.40;90.60
53695;DHT22;39588;51.124;7.190;2023-02-28T19:47:13;1.40;90.90
53695;DHT22;39588;51.124;7.190;2023-02-28T19:52:05;1.30;90.90
53695;DHT22;39588;51.124;7.190;2023-02-28T19:56:59;1.30;90.90
53695;DHT22;39588;51.124;7.190;2023-02-28T20:01:53;1.30;91.00
53695;DHT22;39588;51.124;7.190;2023-02-28T20:04:23;1.20;91.00
53695;DHT22;39588;51.124;7.190;2023-02-28T20:11:43;1.20;91.00
53695;DHT22;39588;51.124;7.190;2023-02-28T20:14:10;1.20;91.00
53695;DHT22;39588;51.124;7.190;2023-02-28T20:16:38;1.20;91.20
53695;DHT22;39588;51.124;7.190;2023-02-28T20:31:23;1.10;91.30
53695;DHT22;39588;51.124;7.190;2023-02-28T20:36:16;1.10;91.40
53695;DHT22;39588;51.124;7.190;2023-02-28T20:48:31;0.90;91.60
53695;DHT22;39588;51.124;7.190;2023-02-28T20:50:58;0.90;91.60
53695;DHT22;39588;51.124;7.190;2023-02-28T20:53:25;0.80;91.60
53695;DHT22;39588;51.124;7.190;2023-02-28T20:56:00;0.80;91.70
53695;DHT22;39588;51.124;7.190;2023-02-28T20:58:27;0.80;91.70
53695;DHT22;39588;51.124;7.190;2023-02-28T21:01:01;0.80;91.80
53695;DHT22;39588;51.124;7.190;2023-02-28T21:03:27;0.80;91.80
53695;DHT22;39588;51.124;7.190;2023-02-28T21:06:00;0.70;91.80
53695;DHT22;39588;51.124;7.190;2023-02-28T21:08:26;0.70;91.90
53695;DHT22;39588;51.124;7.190;2023-02-28T21:25:28;0.70;92.00
53695;DHT22;39588;51.124;7.190;2023-02-28T21:30:21;0.70;91.90
53695;DHT22;39588;51.124;7.190;2023-02-28T21:32:47;0.60;91.80
53695;DHT22;39588;51.124;7.190;2023-02-28T21:35:13;0.60;91.90
53695;DHT22;39588;51.124;7.190;2023-02-28T21:37:39;0.60;91.90
53695;DHT22;39588;51.124;7.190;2023-02-28T21:40:05;0.60;91.90
53695;DHT22;39588;51.124;7.190;2023-02-28T21:42:31;0.60;92.00
53695;DHT22;39588;51.124;7.190;2023-02-28T22:04:30;0.50;92.00
53695;DHT22;39588;51.124;7.190;2023-02-28T22:06:56;0.50;92.00
53695;DHT22;39588;51.124;7.190;2023-02-28T22:21:34;0.30;92.10
53695;DHT22;39588;51.124;7.190;2023-02-28T22:26:27;0.40;92.30
53695;DHT22;39588;51.124;7.190;2023-02-28T22:28:53;0.30;92.30
53695;DHT22;39588;51.124;7.190;2023-02-28T22:31:30;0.30;92.20
53695;DHT22;39588;51.124;7.190;2023-02-28T22:34:00;0.30;92.10
53695;DHT22;39588;51.124;7.190;2023-02-28T22:43:49;0.30;92.20
53695;DHT22;39588;51.124;7.190;2023-02-28T22:51:10;0.20;92.30
53695;DHT22;39588;51.124;7.190;2023-02-28T23:01:07;0.20;92.20
53695;DHT22;39588;51.124;7.190;2023-02-28T23:13:18;0.10;92.10
53695;DHT22;39588;51.124;7.190;2023-02-28T23:15:45;0.10;92.10
53695;DHT22;39588;51.124;7.190;2023-02-28T23:20:37;0.00;92.10
53695;DHT22;39588;51.124;7.190;2023-02-28T23:23:03;0.00;92.10
53695;DHT22;39588;51.124;7.190;2023-02-28T23:25:29;0.00;92.10
53695;DHT22;39588;51.124;7.190;2023-02-28T23:27:55;-0.10;92.30
53695;DHT22;39588;51.124;7.190;2023-02-28T23:30:20;-0.10;92.40
53695;DHT22;39588;51.124;7.190;2023-02-28T23:37:39;-0.20;92.50
53695;DHT22;39588;51.124;7.190;2023-02-28T23:40:06;-0.20;92.60
53695;DHT22;39588;51.124;7.190;2023-02-28T23:44:59;-0.30;92.50
53695;DHT22;39588;51.124;7.190;2023-02-28T23:49:52;-0.30;92.70
53695;DHT22;39588;51.124;7.190;2023-02-28T23:52:18;-0.40;92.80
53695;DHT22;39588;51.124;7.190;2023-02-28T23:54:44;-0.40;92.90
53695;DHT22;39588;51.124;7.190;2023-02-28T23:57:09;-0.40;92.90
